createdAt,value
2019-05-17T00:01:57.511Z,8.93
2019-05-17T00:04:26.978Z,9.05
2019-05-17T00:06:57.045Z,9.65
2019-05-17T00:09:26.776Z,9.05
2019-05-17T00:11:56.848Z,8.40
2019-05-17T00:14:26.996Z,9.28
2019-05-17T00:16:57.125Z,10.18
2019-05-17T00:19:26.295Z,9.65
2019-05-17T00:21:56.701Z,8.78
2019-05-17T00:24:26.508Z,10.58
2019-05-17T00:26:54.675Z,8.88
2019-05-17T00:29:22.920Z,10.68
2019-05-17T00:31:51.162Z,9.05
2019-05-17T00:34:19.425Z,9.13
2019-05-17T00:36:47.783Z,10.35
2019-05-17T00:39:16.704Z,10.35
2019-05-17T00:41:46.963Z,10.13
2019-05-17T00:44:16.817Z,9.78
2019-05-17T00:46:46.769Z,9.93
2019-05-17T00:49:17.099Z,10.95
2019-05-17T00:51:47.436Z,10.32
2019-05-17T00:54:17.490Z,9.78
2019-05-17T00:56:46.450Z,9.75
2019-05-17T00:59:16.820Z,9.50
2019-05-17T01:01:46.798Z,8.58
2019-05-17T01:04:17.097Z,8.33
2019-05-17T01:06:46.919Z,9.73
2019-05-17T01:09:16.993Z,8.75
2019-05-17T01:11:47.175Z,9.25
2019-05-17T01:14:17.335Z,8.75
2019-05-17T01:16:47.320Z,7.97
2019-05-17T01:19:16.401Z,9.50
2019-05-17T01:21:47.256Z,7.80
2019-05-17T01:24:17.087Z,8.45
2019-05-17T01:26:46.721Z,8.20
2019-05-17T01:29:17.299Z,8.08
2019-05-17T01:31:46.530Z,7.67
2019-05-17T01:34:16.599Z,8.83
2019-05-17T01:36:46.476Z,8.03
2019-05-17T01:39:18.681Z,8.33
2019-05-17T01:41:46.846Z,7.90
2019-05-17T01:44:16.756Z,7.45
2019-05-17T01:46:46.496Z,7.12
2019-05-17T01:49:16.461Z,8.73
2019-05-17T01:51:46.523Z,9.28
2019-05-17T01:54:14.570Z,8.95
2019-05-17T01:56:42.830Z,8.28
2019-05-17T01:59:11.049Z,8.33
2019-05-17T02:01:39.752Z,8.78
2019-05-17T02:04:07.996Z,8.05
2019-05-17T02:06:36.778Z,7.60
2019-05-17T02:09:06.408Z,8.05
2019-05-17T02:11:37.051Z,7.92
2019-05-17T02:14:06.890Z,7.83
2019-05-17T02:16:37.416Z,7.37
2019-05-17T02:19:06.694Z,8.05
2019-05-17T02:21:36.754Z,7.53
2019-05-17T02:24:07.743Z,7.10
2019-05-17T02:26:37.268Z,8.68
2019-05-17T02:29:04.907Z,7.22
2019-05-17T02:31:33.716Z,7.25
2019-05-17T02:34:03.199Z,7.42
2019-05-17T02:36:33.264Z,7.65
2019-05-17T02:39:03.583Z,7.65
2019-05-17T02:41:33.248Z,7.03
2019-05-17T02:44:02.620Z,7.90
2019-05-17T02:46:33.720Z,9.15
2019-05-17T02:49:03.077Z,7.87
2019-05-17T02:51:32.386Z,7.90
2019-05-17T02:54:04.065Z,8.20
2019-05-17T02:56:32.750Z,8.35
2019-05-17T02:59:03.670Z,8.78
2019-05-17T03:01:33.170Z,8.70
2019-05-17T03:04:04.003Z,7.97
2019-05-17T03:06:33.067Z,9.73
2019-05-17T03:09:03.516Z,9.70
2019-05-17T03:11:33.356Z,10.35
2019-05-17T03:14:04.045Z,9.55
2019-05-17T03:16:33.851Z,10.93
2019-05-17T03:19:04.105Z,9.65
2019-05-17T03:21:33.781Z,9.88
2019-05-17T03:24:03.557Z,9.18
2019-05-17T03:26:32.797Z,11.20
2019-05-17T03:29:03.239Z,10.98
2019-05-17T03:31:40.623Z,9.93
2019-05-17T03:34:06.288Z,11.05
2019-05-17T03:36:36.082Z,11.10
2019-05-17T03:39:03.168Z,11.30
2019-05-17T03:41:34.065Z,12.20
2019-05-17T03:44:03.195Z,12.45
2019-05-17T03:46:33.477Z,12.80
2019-05-17T03:49:03.915Z,11.90
2019-05-17T03:51:33.318Z,10.72
2019-05-17T03:54:02.388Z,11.85
2019-05-17T03:56:32.919Z,11.65
2019-05-17T03:59:03.727Z,11.18
2019-05-17T04:01:32.849Z,12.05
2019-05-17T04:04:02.977Z,11.10
2019-05-17T04:06:32.911Z,11.97
2019-05-17T04:09:03.770Z,12.80
2019-05-17T04:11:35.547Z,10.95
2019-05-17T04:14:03.047Z,12.47
2019-05-17T04:16:33.688Z,11.95
2019-05-17T04:19:03.071Z,14.28
2019-05-17T04:21:33.885Z,13.32
2019-05-17T04:24:03.198Z,13.45
2019-05-17T04:26:32.577Z,12.95
2019-05-17T04:29:03.313Z,12.33
2019-05-17T04:31:34.698Z,13.58
2019-05-17T04:34:03.108Z,14.20
2019-05-17T04:36:32.309Z,14.20
2019-05-17T04:39:02.479Z,14.28
2019-05-17T04:41:54.647Z,14.80
2019-05-17T04:44:23.121Z,14.60
2019-05-17T04:46:53.401Z,14.68
2019-05-17T04:49:24.173Z,14.23
2019-05-17T04:51:52.531Z,16.45
2019-05-17T04:54:22.731Z,15.13
2019-05-17T04:56:53.168Z,14.15
2019-05-17T04:59:24.031Z,13.68
2019-05-17T05:01:53.709Z,13.80
2019-05-17T05:04:22.672Z,13.83
2019-05-17T05:06:52.455Z,14.75
2019-05-17T05:09:23.075Z,13.93
2019-05-17T05:11:59.877Z,14.95
2019-05-17T05:14:23.320Z,14.98
2019-05-17T05:16:52.913Z,14.73
2019-05-17T05:19:22.328Z,11.50
2019-05-17T05:21:52.052Z,13.98
2019-05-17T05:24:22.266Z,11.35
2019-05-17T05:26:51.817Z,13.70
2019-05-17T05:29:21.645Z,13.55
2019-05-17T05:31:51.818Z,14.00
2019-05-17T05:34:21.591Z,12.00
2019-05-17T05:36:52.347Z,12.53
2019-05-17T05:39:19.961Z,10.13
2019-05-17T05:41:48.219Z,10.85
2019-05-17T05:44:16.469Z,11.03
2019-05-17T05:46:44.689Z,12.90
2019-05-17T05:49:12.942Z,12.60
2019-05-17T05:51:42.544Z,12.98
2019-05-17T05:54:12.330Z,11.15
2019-05-17T05:56:42.243Z,13.62
2019-05-17T05:59:12.082Z,14.07
2019-05-17T06:01:42.137Z,13.40
2019-05-17T06:04:11.774Z,11.65
2019-05-17T06:06:41.638Z,14.35
2019-05-17T06:09:12.204Z,14.30
2019-05-17T06:11:41.627Z,13.43
2019-05-17T06:14:12.158Z,14.47
2019-05-17T06:16:42.419Z,12.75
2019-05-17T06:19:11.644Z,13.53
2019-05-17T06:21:42.527Z,12.73
2019-05-17T06:24:11.926Z,13.75
2019-05-17T06:26:42.089Z,12.03
2019-05-17T06:29:11.789Z,12.60
2019-05-17T06:31:43.030Z,11.28
2019-05-17T06:34:11.645Z,13.43
2019-05-17T06:36:42.134Z,13.30
2019-05-17T06:39:11.719Z,12.28
2019-05-17T06:41:41.948Z,13.03
2019-05-17T06:44:12.106Z,12.85
2019-05-17T06:46:41.892Z,11.30
2019-05-17T06:49:11.715Z,11.63
2019-05-17T06:51:42.395Z,12.23
2019-05-17T06:54:12.014Z,12.35
2019-05-17T06:56:41.829Z,12.25
2019-05-17T06:59:10.091Z,13.93
2019-05-17T07:01:38.332Z,13.43
2019-05-17T07:04:06.721Z,13.00
2019-05-17T07:06:35.737Z,9.65
2019-05-17T07:09:05.301Z,11.12
2019-05-17T07:11:33.551Z,12.53
2019-05-17T07:14:01.853Z,11.18
2019-05-17T07:16:30.330Z,12.40
2019-05-17T07:18:59.752Z,11.50
2019-05-17T07:21:29.750Z,11.45
2019-05-17T07:23:59.414Z,11.25
2019-05-17T07:26:30.089Z,13.30
2019-05-17T07:28:59.257Z,12.23
2019-05-17T07:31:29.627Z,10.60
2019-05-17T07:33:59.694Z,12.33
2019-05-17T07:36:27.656Z,13.08
2019-05-17T07:38:55.971Z,11.30
2019-05-17T07:41:24.200Z,14.23
2019-05-17T07:43:52.433Z,14.83
2019-05-17T07:46:20.774Z,15.23
2019-05-17T07:48:49.796Z,13.45
2019-05-17T07:51:19.510Z,13.25
2019-05-17T07:53:49.484Z,13.28
2019-05-17T07:56:20.041Z,12.68
2019-05-17T07:58:49.487Z,13.28
2019-05-17T08:01:20.293Z,12.65
2019-05-17T08:03:50.139Z,14.43
2019-05-17T08:06:19.909Z,12.23
2019-05-17T08:08:50.117Z,12.25
2019-05-17T08:11:19.702Z,11.95
2019-05-17T08:13:50.493Z,11.12
2019-05-17T08:16:19.614Z,13.15
2019-05-17T08:18:49.713Z,13.62
2019-05-17T08:21:19.916Z,13.58
2019-05-17T08:23:50.460Z,12.95
2019-05-17T08:26:20.051Z,10.88
2019-05-17T08:28:49.935Z,12.98
2019-05-17T08:31:20.127Z,12.93
2019-05-17T08:33:49.783Z,10.90
2019-05-17T08:36:20.138Z,12.35
2019-05-17T08:38:50.147Z,12.60
2019-05-17T08:41:20.637Z,10.88
2019-05-17T08:43:51.169Z,12.05
2019-05-17T08:46:19.873Z,11.35
2019-05-17T08:48:49.516Z,9.30
2019-05-17T08:51:19.664Z,10.28
2019-05-17T08:53:49.287Z,11.83
2019-05-17T08:56:20.453Z,12.35
2019-05-17T08:58:49.827Z,13.43
2019-05-17T09:01:19.640Z,11.25
2019-05-17T09:03:50.607Z,10.53
2019-05-17T09:06:19.882Z,11.20
2019-05-17T09:08:49.974Z,12.63
2019-05-17T09:11:19.681Z,11.83
2019-05-17T09:13:57.958Z,12.15
2019-05-17T09:16:19.592Z,12.18
2019-05-17T09:18:50.176Z,14.05
2019-05-17T09:21:18.427Z,10.18
2019-05-17T09:23:46.768Z,10.85
2019-05-17T09:26:15.036Z,11.30
2019-05-17T09:28:43.256Z,12.45
2019-05-17T09:31:11.623Z,11.15
2019-05-17T09:33:40.621Z,10.72
2019-05-17T09:36:10.097Z,11.12
2019-05-17T09:38:40.400Z,11.12
2019-05-17T09:41:09.411Z,12.07
2019-05-17T09:43:40.088Z,11.57
2019-05-17T09:46:10.403Z,10.38
2019-05-17T09:48:39.637Z,11.97
2019-05-17T09:51:10.285Z,14.15
2019-05-17T09:53:39.934Z,13.80
2019-05-17T09:56:09.796Z,11.90
2019-05-17T09:58:39.704Z,10.95
2019-05-17T10:01:09.452Z,10.53
2019-05-17T10:03:39.749Z,10.68
2019-05-17T10:06:09.655Z,11.45
2019-05-17T10:08:39.450Z,9.50
2019-05-17T10:11:09.696Z,9.65
2019-05-17T10:13:37.781Z,9.13
2019-05-17T10:16:06.005Z,9.50
2019-05-17T10:18:34.236Z,8.78
2019-05-17T10:21:02.488Z,8.08
2019-05-17T10:23:30.772Z,8.85
2019-05-17T10:25:59.654Z,8.68
2019-05-17T10:28:28.089Z,9.75
2019-05-17T10:30:56.458Z,12.45
2019-05-17T10:33:24.820Z,14.30
2019-05-17T10:35:53.065Z,12.85
2019-05-17T10:38:21.301Z,10.78
2019-05-17T10:40:50.175Z,10.55
2019-05-17T10:43:20.496Z,10.55
2019-05-17T10:45:49.524Z,8.98
2019-05-17T10:48:20.958Z,8.70
2019-05-17T10:50:49.670Z,8.28
2019-05-17T10:53:20.174Z,7.15
2019-05-17T10:55:49.652Z,8.80
2019-05-17T10:58:21.010Z,8.83
2019-05-17T11:00:49.937Z,8.93
2019-05-17T11:03:20.225Z,8.53
2019-05-17T11:05:50.078Z,8.58
2019-05-17T11:08:19.708Z,8.75
2019-05-17T11:10:49.931Z,8.93
2019-05-17T11:13:17.682Z,7.80
2019-05-17T11:15:45.928Z,7.35
2019-05-17T11:18:14.173Z,8.30
2019-05-17T11:20:42.567Z,9.03
2019-05-17T11:23:10.795Z,7.78
2019-05-17T11:25:44.994Z,8.48
2019-05-17T11:28:08.988Z,7.90
2019-05-17T11:30:37.385Z,8.45
2019-05-17T11:33:05.665Z,9.20
2019-05-17T11:35:33.906Z,9.30
2019-05-17T11:38:02.160Z,8.08
2019-05-17T11:40:30.422Z,7.17
2019-05-17T11:42:58.704Z,7.15
2019-05-17T11:45:30.268Z,7.05
2019-05-17T11:47:57.900Z,7.50
2019-05-17T11:50:26.244Z,7.83
2019-05-17T11:52:54.500Z,7.95
2019-05-17T11:55:22.740Z,9.05
2019-05-17T11:57:50.963Z,7.92
2019-05-17T12:00:19.650Z,7.95
2019-05-17T12:02:47.900Z,7.20
2019-05-17T12:05:16.119Z,8.08
2019-05-17T12:07:44.402Z,7.08
2019-05-17T12:10:12.662Z,7.40
2019-05-17T12:12:41.107Z,6.92
2019-05-17T12:15:09.321Z,7.17
2019-05-17T12:17:37.538Z,6.03
2019-05-17T12:20:06.509Z,5.80
2019-05-17T12:22:35.674Z,6.33
2019-05-17T12:25:05.978Z,5.87
2019-05-17T12:27:34.185Z,5.92
2019-05-17T12:30:02.745Z,5.47
2019-05-17T12:32:31.097Z,7.70
2019-05-17T12:34:59.323Z,6.30
2019-05-17T12:37:27.632Z,7.22
2019-05-17T12:39:55.896Z,7.10
2019-05-17T12:42:24.211Z,7.28
2019-05-17T12:44:52.447Z,7.37
2019-05-17T12:47:20.672Z,6.37
2019-05-17T12:49:49.654Z,6.87
2019-05-17T12:52:17.897Z,6.30
2019-05-17T12:54:46.142Z,6.17
2019-05-17T12:57:14.342Z,6.75
2019-05-17T12:59:42.581Z,6.58
2019-05-17T13:02:12.480Z,5.97
2019-05-17T13:04:40.951Z,6.22
2019-05-17T13:07:10.024Z,6.60
2019-05-17T13:09:38.261Z,6.60
2019-05-17T13:12:06.564Z,6.80
2019-05-17T13:14:35.183Z,7.72
2019-05-17T13:17:03.410Z,6.70
2019-05-17T13:19:31.806Z,7.67
2019-05-17T13:22:00.046Z,8.18
2019-05-17T13:24:28.297Z,8.33
2019-05-17T13:26:56.513Z,8.35
2019-05-17T13:29:25.748Z,9.00
2019-05-17T13:31:54.010Z,9.03
2019-05-17T13:34:22.900Z,8.83
2019-05-17T13:36:51.125Z,7.25
2019-05-17T13:39:19.368Z,8.08
2019-05-17T13:41:47.641Z,8.18
2019-05-17T13:44:16.321Z,9.03
2019-05-17T13:46:44.600Z,7.90
2019-05-17T13:49:12.878Z,9.28
2019-05-17T13:51:41.108Z,10.25
2019-05-17T13:54:09.423Z,8.63
2019-05-17T13:56:37.667Z,7.60
2019-05-17T13:59:05.903Z,7.87
2019-05-17T14:01:34.257Z,9.03
2019-05-17T14:04:02.568Z,8.63
2019-05-17T14:06:30.803Z,8.43
2019-05-17T14:08:59.013Z,9.23
2019-05-17T14:11:27.240Z,8.28
2019-05-17T14:13:55.481Z,10.85
2019-05-17T14:16:23.727Z,9.38
2019-05-17T14:18:52.023Z,9.68
2019-05-17T14:21:20.274Z,7.85
2019-05-17T14:23:48.483Z,8.05
2019-05-17T14:26:16.722Z,8.40
2019-05-17T14:28:44.942Z,9.20
2019-05-17T14:31:13.192Z,9.45
2019-05-17T14:40:19.145Z,8.45
2019-05-17T14:42:47.484Z,9.43
2019-05-17T14:45:15.760Z,6.90
2019-05-17T14:47:43.985Z,7.90
2019-05-17T14:50:13.359Z,8.53
2019-05-17T14:52:41.578Z,8.35
2019-05-17T14:55:09.887Z,8.20
2019-05-17T14:57:38.130Z,7.55
2019-05-17T15:00:07.688Z,7.72
2019-05-17T15:02:35.925Z,8.40
2019-05-17T15:05:05.183Z,9.10
2019-05-17T15:07:33.420Z,8.08
2019-05-17T15:10:01.668Z,7.55
2019-05-17T15:12:30.083Z,7.33
2019-05-17T15:14:58.345Z,7.87
2019-05-17T15:17:26.588Z,8.10
2019-05-17T15:19:54.926Z,7.95
2019-05-17T15:22:23.174Z,8.08
2019-05-17T15:24:53.482Z,7.22
2019-05-17T15:27:21.776Z,9.13
2019-05-17T15:29:50.001Z,8.40
2019-05-17T15:32:18.234Z,7.40
2019-05-17T15:34:46.448Z,7.60
2019-05-17T15:37:14.688Z,7.10
2019-05-17T15:39:42.920Z,8.48
2019-05-17T15:42:11.332Z,8.90
2019-05-17T15:44:39.879Z,9.10
2019-05-17T15:47:08.145Z,7.10
2019-05-17T15:49:36.382Z,9.08
2019-05-17T15:52:04.627Z,7.30
2019-05-17T15:54:32.917Z,7.92
2019-05-17T15:57:01.253Z,8.63
2019-05-17T15:59:29.489Z,7.60
2019-05-17T16:01:57.828Z,6.58
2019-05-17T16:04:26.069Z,8.48
2019-05-17T16:06:54.335Z,7.70
2019-05-17T16:09:22.613Z,7.90
2019-05-17T16:11:50.880Z,7.25
2019-05-17T16:14:19.294Z,7.97
2019-05-17T16:16:47.589Z,8.10
2019-05-17T16:19:15.807Z,7.62
2019-05-17T16:21:44.067Z,8.20
2019-05-17T16:24:12.397Z,7.80
2019-05-17T16:26:40.965Z,7.97
2019-05-17T16:29:09.225Z,7.10
2019-05-17T16:31:37.523Z,8.45
2019-05-17T16:34:05.753Z,7.33
2019-05-17T16:36:34.005Z,7.78
2019-05-17T16:39:02.629Z,7.83
2019-05-17T16:41:30.906Z,6.60
2019-05-17T16:43:59.138Z,6.15
2019-05-17T16:46:27.379Z,7.35
2019-05-17T16:48:55.616Z,7.08
2019-05-17T16:51:23.832Z,7.20
2019-05-17T16:53:52.078Z,6.85
2019-05-17T16:56:21.109Z,7.58
2019-05-17T16:58:49.388Z,7.60
2019-05-17T17:01:17.887Z,6.70
2019-05-17T17:03:46.179Z,7.55
2019-05-17T17:06:14.689Z,7.35
2019-05-17T17:08:43.217Z,7.50
2019-05-17T17:11:11.480Z,8.03
2019-05-17T17:13:39.760Z,7.62
2019-05-17T17:16:07.993Z,7.85
2019-05-17T17:18:36.218Z,8.48
2019-05-17T17:21:04.683Z,8.55
2019-05-17T17:23:32.914Z,8.30
2019-05-17T17:26:01.176Z,7.22
2019-05-17T17:28:29.448Z,7.42
2019-05-17T17:30:57.706Z,7.83
2019-05-17T17:33:25.941Z,8.98
2019-05-17T17:35:54.209Z,8.35
2019-05-17T17:38:22.440Z,7.15
2019-05-17T17:40:50.674Z,7.97
2019-05-17T17:43:19.953Z,7.62
2019-05-17T17:45:48.261Z,6.75
2019-05-17T17:48:16.587Z,8.80
2019-05-17T17:50:44.894Z,8.45
2019-05-17T17:53:13.484Z,9.70
2019-05-17T17:55:41.752Z,10.48
2019-05-17T17:58:10.042Z,11.30
2019-05-17T18:00:38.326Z,11.38
2019-05-17T18:03:06.538Z,11.60
2019-05-17T18:05:34.913Z,13.32
2019-05-17T18:08:03.211Z,13.78
2019-05-17T18:10:32.624Z,12.43
2019-05-17T18:13:00.901Z,11.45
2019-05-17T18:15:43.767Z,11.55
2019-05-17T18:18:12.074Z,12.18
2019-05-17T18:20:40.509Z,12.50
2019-05-17T18:23:08.745Z,12.88
2019-05-17T18:25:37.152Z,12.28
2019-05-17T18:28:05.442Z,13.78
2019-05-17T18:30:34.213Z,13.13
2019-05-17T18:33:02.439Z,14.18
2019-05-17T18:35:30.677Z,13.08
2019-05-17T18:37:58.897Z,13.50
2019-05-17T18:40:27.193Z,12.68
2019-05-17T18:42:56.480Z,14.53
2019-05-17T18:45:24.829Z,14.07
2019-05-17T18:47:53.060Z,13.88
2019-05-17T18:50:21.314Z,14.05
2019-05-17T18:52:49.580Z,13.30
2019-05-17T18:55:18.006Z,13.58
2019-05-17T18:57:46.248Z,13.68
2019-05-17T19:00:14.470Z,13.65
2019-05-17T19:02:42.736Z,14.23
2019-05-17T19:05:11.086Z,13.30
2019-05-17T19:07:39.517Z,15.28
2019-05-17T19:10:08.088Z,13.78
2019-05-17T19:12:36.542Z,14.05
2019-05-17T19:15:08.085Z,14.35
2019-05-17T19:17:36.374Z,14.58
2019-05-17T19:20:07.045Z,15.40
2019-05-17T19:22:35.361Z,14.93
2019-05-17T19:25:05.665Z,14.35
2019-05-17T19:27:33.971Z,16.02
2019-05-17T19:30:05.007Z,15.03
2019-05-17T19:32:54.290Z,15.05
2019-05-17T19:35:22.591Z,15.68
2019-05-17T19:37:51.003Z,14.63
2019-05-17T19:40:19.258Z,15.28
2019-05-17T19:42:48.579Z,16.05
2019-05-17T19:45:16.885Z,14.75
2019-05-17T19:47:45.203Z,14.68
2019-05-17T19:50:13.632Z,14.05
2019-05-17T19:52:42.699Z,14.73
2019-05-17T19:55:10.979Z,14.80
2019-05-17T19:57:39.316Z,14.35
2019-05-17T20:00:09.240Z,16.87
2019-05-17T20:02:37.520Z,18.20
2019-05-17T20:05:05.983Z,15.63
2019-05-17T20:07:38.652Z,17.98
2019-05-17T20:10:07.434Z,16.23
2019-05-17T20:12:35.729Z,18.00
2019-05-17T20:15:16.611Z,19.73
2019-05-17T20:17:35.923Z,18.07
2019-05-17T20:20:07.451Z,15.25
2019-05-17T20:22:35.814Z,15.15
2019-05-17T20:25:05.219Z,17.10
2019-05-17T20:27:33.506Z,15.80
2019-05-17T20:30:02.313Z,17.73
2019-05-17T20:32:30.901Z,17.05
2019-05-17T20:34:59.167Z,17.73
2019-05-17T20:37:27.464Z,18.10
2019-05-17T20:39:55.995Z,17.62
2019-05-17T20:42:24.365Z,21.15
2019-05-17T20:44:52.890Z,18.40
2019-05-17T20:47:21.306Z,17.87
2019-05-17T20:49:49.592Z,20.95
2019-05-17T20:52:17.843Z,21.25
2019-05-17T20:54:46.117Z,19.75
2019-05-17T20:57:14.477Z,20.12
2019-05-17T20:59:42.769Z,20.48
2019-05-17T21:02:11.053Z,22.30
2019-05-17T21:04:39.297Z,23.00
2019-05-17T21:07:07.961Z,21.05
2019-05-17T21:09:36.208Z,24.15
2019-05-17T21:12:04.487Z,23.92
2019-05-17T21:14:32.764Z,24.18
2019-05-17T21:17:01.126Z,22.98
2019-05-17T21:19:29.394Z,23.52
2019-05-17T21:21:57.666Z,22.95
2019-05-17T21:24:26.666Z,22.85
2019-05-17T21:26:54.955Z,23.32
2019-05-17T21:29:23.247Z,23.98
2019-05-17T21:31:51.907Z,25.70
2019-05-17T21:34:20.175Z,25.50
2019-05-17T21:36:48.663Z,25.68
2019-05-17T21:39:16.901Z,25.82
2019-05-17T21:41:45.178Z,26.25
2019-05-17T21:44:13.470Z,25.90
2019-05-17T21:46:41.849Z,28.67
2019-05-17T21:49:10.121Z,26.62
2019-05-17T21:51:38.392Z,28.47
2019-05-17T21:54:06.655Z,28.45
2019-05-17T21:56:34.951Z,30.32
2019-05-17T21:59:03.211Z,29.00
2019-05-17T22:01:33.634Z,31.25
2019-05-17T22:04:01.911Z,31.87
2019-05-17T22:06:30.172Z,31.73
2019-05-17T22:08:58.422Z,31.25
2019-05-17T22:11:26.965Z,31.87
2019-05-17T22:13:55.182Z,31.93
2019-05-17T22:16:23.473Z,32.45
2019-05-17T22:18:51.840Z,32.60
2019-05-17T22:21:20.688Z,31.60
2019-05-17T22:23:48.942Z,34.40
2019-05-17T22:26:17.259Z,33.95
2019-05-17T22:28:45.553Z,32.20
2019-05-17T22:31:13.838Z,32.83
2019-05-17T22:33:42.106Z,32.73
2019-05-17T22:36:10.677Z,34.63
2019-05-17T22:38:38.981Z,32.95
2019-05-17T22:41:07.269Z,31.10
2019-05-17T22:43:35.884Z,34.53
2019-05-17T22:46:04.266Z,31.68
2019-05-17T22:48:32.631Z,33.35
2019-05-17T22:51:01.019Z,31.65
2019-05-17T22:53:29.291Z,32.17
2019-05-17T22:55:57.570Z,32.48
2019-05-17T22:58:25.888Z,31.50
2019-05-17T23:00:54.103Z,32.50
2019-05-17T23:03:22.876Z,34.13
2019-05-17T23:05:51.695Z,32.15
2019-05-17T23:08:19.985Z,32.45
2019-05-17T23:10:48.314Z,32.83
2019-05-17T23:13:16.797Z,32.73
2019-05-17T23:16:01.052Z,32.45
2019-05-17T23:18:33.181Z,33.15
2019-05-17T23:21:01.516Z,32.33
2019-05-17T23:23:29.869Z,31.25
2019-05-17T23:25:58.135Z,30.82
2019-05-17T23:28:26.652Z,31.93
2019-05-17T23:30:54.927Z,31.90
2019-05-17T23:33:23.218Z,31.05
2019-05-17T23:35:51.563Z,30.92
2019-05-17T23:38:20.440Z,32.40
2019-05-17T23:40:48.805Z,30.95
2019-05-17T23:43:17.253Z,33.85
2019-05-17T23:45:45.986Z,33.05
2019-05-17T23:48:14.249Z,32.20
2019-05-17T23:50:43.031Z,30.62
2019-05-17T23:53:11.287Z,32.63
2019-05-17T23:55:40.496Z,32.45
2019-05-17T23:58:08.770Z,32.78
